Time;durP1;ratioP1;P1;durP2;ratioP2;P2;SDS_P1;SDS_P2;PMS_P1;PMS_P2;Temp;Humidity;BMP_temperature;BMP_pressure;BME280_temperature;BME280_humidity;BME280_pressure;Samples;Min_cycle;Max_cycle;Signal;HPM_P1;HPM_P2
2022/10/22 04:30:07;;;;;;;13.80;2.15;;;16.60;80.90;;;;;;6106858;23;20040;31
2022/10/22 04:32:32;;;;;;;12.13;2.28;;;16.60;80.90;;;;;;4963432;28;20134;-77
2022/10/22 04:34:58;;;;;;;16.08;2.67;;;16.60;80.90;;;;;;4978254;28;20485;-77
2022/10/22 04:37:24;;;;;;;15.68;2.53;;;16.60;80.80;;;;;;4967157;28;20027;-78
2022/10/22 04:39:49;;;;;;;13.90;1.95;;;16.60;81.00;;;;;;4958919;29;20050;-77
2022/10/22 04:42:15;;;;;;;11.98;2.00;;;16.50;81.50;;;;;;4958911;29;20035;-77
2022/10/22 04:44:40;;;;;;;14.93;3.13;;;16.30;82.10;;;;;;4959985;29;20023;-77
2022/10/22 04:47:06;;;;;;;14.95;2.20;;;16.30;82.50;;;;;;4978033;28;20045;-77
2022/10/22 04:49:32;;;;;;;9.60;1.80;;;16.20;82.60;;;;;;4976071;28;20043;-77
2022/10/22 04:51:57;;;;;;;11.70;2.05;;;16.20;83.00;;;;;;4958795;29;20030;-77
2022/10/22 04:54:23;;;;;;;15.23;2.03;;;16.20;82.70;;;;;;4958458;29;20035;-77
2022/10/22 04:56:48;;;;;;;15.05;2.15;;;16.20;82.70;;;;;;4957664;29;20438;-77
2022/10/22 04:59:14;;;;;;;16.33;3.38;;;16.30;82.60;;;;;;4957969;28;20759;-77
2022/10/22 05:01:42;;;;;;;13.90;2.17;;;16.30;82.50;;;;;;4973949;28;20030;-77
2022/10/22 05:04:11;;;;;;;13.98;2.15;;;16.30;82.30;;;;;;4973130;28;20118;-77
2022/10/22 05:06:37;;;;;;;13.95;1.92;;;16.30;82.00;;;;;;4974966;28;20027;-77
2022/10/22 05:09:05;;;;;;;14.57;1.83;;;16.30;82.00;;;;;;4959965;28;20458;-78
2022/10/22 05:11:34;;;;;;;11.35;2.25;;;16.30;82.10;;;;;;4969534;28;20039;-77
2022/10/22 05:14:01;;;;;;;10.90;2.10;;;16.30;82.10;;;;;;4979320;28;20034;-77
2022/10/22 05:16:29;;;;;;;12.32;2.90;;;16.20;82.00;;;;;;4978196;28;20019;-77
2022/10/22 05:18:56;;;;;;;13.57;2.15;;;16.30;82.20;;;;;;4979072;28;20035;-77
2022/10/22 05:21:22;;;;;;;10.00;2.17;;;16.20;81.90;;;;;;4979493;28;20389;-77
2022/10/22 05:23:49;;;;;;;8.25;2.03;;;16.30;81.60;;;;;;4960762;28;20027;-77
2022/10/22 05:26:19;;;;;;;10.88;2.05;;;16.30;81.90;;;;;;4959784;28;20038;-77
2022/10/22 05:28:47;;;;;;;14.45;1.80;;;16.30;82.00;;;;;;4959617;28;20467;-77
2022/10/22 05:31:14;;;;;;;13.38;2.35;;;16.30;82.00;;;;;;4959643;28;20050;-77
2022/10/22 05:33:40;;;;;;;16.10;2.80;;;16.30;82.30;;;;;;4959541;28;20042;-77
2022/10/22 05:36:08;;;;;;;14.85;2.30;;;16.30;82.40;;;;;;4960745;28;20414;-77
2022/10/22 05:38:34;;;;;;;7.72;1.80;;;16.30;82.20;;;;;;4978137;28;20520;-77
2022/10/22 05:41:06;;;;;;;10.98;2.78;;;16.30;82.10;;;;;;4993823;28;20019;-81
2022/10/22 05:43:33;;;;;;;8.88;1.77;;;16.40;82.10;;;;;;4982975;28;20093;-87
2022/10/22 05:46:05;;;;;;;15.35;1.98;;;16.40;82.00;;;;;;4977770;28;20403;-83
2022/10/22 05:48:31;;;;;;;7.63;2.10;;;16.40;82.00;;;;;;4979396;28;20504;-82
2022/10/22 05:51:03;;;;;;;11.15;2.58;;;16.50;82.00;;;;;;4977194;28;20117;-82
2022/10/22 05:53:29;;;;;;;10.90;1.48;;;16.30;82.20;;;;;;4978265;28;20038;-82
2022/10/22 05:55:55;;;;;;;10.90;1.95;;;16.30;82.50;;;;;;4978273;28;20042;-85
2022/10/22 05:58:23;;;;;;;11.43;1.65;;;16.40;82.50;;;;;;4991436;28;20031;-87
2022/10/22 06:00:48;;;;;;;8.80;1.75;;;16.40;82.40;;;;;;4960626;29;20030;-88
2022/10/22 06:03:14;;;;;;;9.20;2.03;;;16.40;82.30;;;;;;4967774;28;20031;-83
2022/10/22 06:05:40;;;;;;;10.98;2.30;;;16.50;82.10;;;;;;4977734;28;20467;-80
2022/10/22 06:08:05;;;;;;;8.23;2.42;;;16.40;82.40;;;;;;4964172;28;20031;-79
2022/10/22 06:10:31;;;;;;;12.63;2.05;;;16.40;82.40;;;;;;4963315;28;20105;-85
2022/10/22 06:12:57;;;;;;;7.43;2.20;;;16.40;82.60;;;;;;4975599;28;20043;-82
2022/10/22 06:15:22;;;;;;;10.63;2.50;;;16.30;82.80;;;;;;4977149;28;20030;-89
2022/10/22 06:17:48;;;;;;;10.23;1.60;;;16.30;83.00;;;;;;4985601;28;20030;-85
2022/10/22 06:20:14;;;;;;;7.68;2.05;;;16.30;83.20;;;;;;4972215;28;20039;-85
2022/10/22 06:22:40;;;;;;;8.13;2.08;;;16.30;83.10;;;;;;4977219;28;20110;-84
2022/10/22 06:25:07;;;;;;;17.25;2.22;;;16.30;83.20;;;;;;4969017;28;20544;-85
2022/10/22 06:27:33;;;;;;;8.55;2.28;;;16.30;83.10;;;;;;4956589;28;20031;-87
2022/10/22 06:29:59;;;;;;;9.25;2.03;;;16.30;83.10;;;;;;4975858;28;20034;-84
2022/10/22 06:32:27;;;;;;;9.88;2.22;;;16.30;83.00;;;;;;4980524;28;20058;-90
2022/10/22 06:34:53;;;;;;;17.92;2.92;;;16.30;83.10;;;;;;4972958;28;20062;-92
2022/10/22 06:37:19;;;;;;;17.33;3.28;;;16.30;83.40;;;;;;4976860;28;20049;-91
2022/10/22 06:39:44;;;;;;;18.25;2.83;;;16.30;83.30;;;;;;4977055;28;20058;-90
2022/10/22 06:42:10;;;;;;;11.85;2.72;;;16.40;83.30;;;;;;4974871;28;20042;-87
2022/10/22 06:44:36;;;;;;;18.67;3.40;;;16.40;83.20;;;;;;4991193;28;20031;-86
2022/10/22 06:47:01;;;;;;;18.02;3.13;;;16.40;83.40;;;;;;4976691;28;20030;-88
2022/10/22 06:49:29;;;;;;;18.63;3.65;;;16.30;83.70;;;;;;4975013;28;20031;-87
2022/10/22 06:51:55;;;;;;;17.42;3.53;;;16.40;83.60;;;;;;4976477;28;20536;-88
2022/10/22 06:54:21;;;;;;;19.50;3.85;;;16.50;83.40;;;;;;4977378;28;20035;-83
2022/10/22 06:56:48;;;;;;;18.45;3.50;;;16.50;83.30;;;;;;4975491;28;20042;-86
2022/10/22 06:59:14;;;;;;;16.55;3.53;;;16.40;83.60;;;;;;4975963;28;20034;-79
2022/10/22 07:01:41;;;;;;;14.18;4.40;;;16.40;83.90;;;;;;4970691;28;20019;-86
2022/10/22 07:04:09;;;;;;;12.48;3.40;;;16.50;84.00;;;;;;4966642;28;20038;-84
2022/10/22 07:06:34;;;;;;;13.68;3.42;;;16.40;84.20;;;;;;4974438;28;20023;-85
2022/10/22 07:09:00;;;;;;;16.80;4.13;;;16.30;84.30;;;;;;4990336;28;20110;-85
2022/10/22 07:11:31;;;;;;;16.33;3.95;;;16.30;84.70;;;;;;4991424;28;20023;-84
2022/10/22 07:13:58;;;;;;;25.35;4.25;;;16.40;84.30;;;;;;4982645;28;20015;-84
2022/10/22 07:16:24;;;;;;;15.88;4.72;;;16.50;84.10;;;;;;4968152;28;20048;-85
2022/10/22 07:18:50;;;;;;;16.85;4.60;;;16.50;84.00;;;;;;4950001;28;20027;-85
2022/10/22 07:21:17;;;;;;;20.45;5.03;;;16.50;84.30;;;;;;4973120;28;20058;-86
2022/10/22 07:23:44;;;;;;;18.25;4.63;;;16.60;84.00;;;;;;4973692;28;20031;-85
2022/10/22 07:26:12;;;;;;;18.45;4.60;;;16.70;83.90;;;;;;4988090;28;20039;-83
2022/10/22 07:28:39;;;;;;;16.08;5.10;;;16.70;84.00;;;;;;4969660;28;20019;-81
2022/10/22 07:31:07;;;;;;;14.65;4.15;;;16.70;83.90;;;;;;4971388;28;20085;-77
2022/10/22 07:33:32;;;;;;;22.67;5.22;;;16.80;83.80;;;;;;4972280;28;20031;-82
2022/10/22 07:36:04;;;;;;;23.88;5.18;;;16.80;83.80;;;;;;4965710;28;20623;-85
2022/10/22 07:38:30;;;;;;;15.38;4.00;;;16.90;83.50;;;;;;4971020;28;20093;-82
2022/10/22 07:40:56;;;;;;;22.08;4.45;;;16.90;83.60;;;;;;4979159;28;20027;-79
2022/10/22 07:43:23;;;;;;;18.25;4.20;;;16.90;83.60;;;;;;4973491;28;20077;-78
2022/10/22 07:45:48;;;;;;;15.05;4.28;;;16.90;83.60;;;;;;4972964;28;20054;-79
2022/10/22 07:48:14;;;;;;;14.50;3.80;;;16.80;84.00;;;;;;4973732;28;20089;-79
2022/10/22 07:50:40;;;;;;;19.35;4.55;;;16.80;84.20;;;;;;4975273;28;20079;-79
2022/10/22 07:53:06;;;;;;;18.08;4.13;;;16.80;84.30;;;;;;4952115;28;20660;-78
2022/10/22 07:55:32;;;;;;;16.10;4.68;;;16.90;84.40;;;;;;4956249;28;20043;-78
2022/10/22 07:57:57;;;;;;;17.75;4.72;;;16.90;84.20;;;;;;4968798;28;20027;-79
2022/10/22 08:00:23;;;;;;;15.60;4.70;;;16.90;84.40;;;;;;4972213;28;20528;-79
2022/10/22 08:02:49;;;;;;;21.58;5.22;;;16.90;84.50;;;;;;4974521;28;20027;-79
2022/10/22 08:05:15;;;;;;;17.73;5.88;;;17.00;84.50;;;;;;4960060;28;20041;-79
2022/10/22 08:07:41;;;;;;;24.75;5.50;;;17.00;84.50;;;;;;4978496;28;20034;-79
2022/10/22 08:10:08;;;;;;;24.55;5.13;;;16.90;84.80;;;;;;4974939;28;20034;-79
2022/10/22 08:12:33;;;;;;;21.55;6.07;;;16.90;84.80;;;;;;4977730;28;20133;-79
2022/10/22 08:14:59;;;;;;;20.55;5.57;;;17.00;84.90;;;;;;4977411;28;20529;-79
2022/10/22 08:17:25;;;;;;;16.45;4.15;;;17.10;84.80;;;;;;4979516;28;20523;-79
2022/10/22 08:19:51;;;;;;;21.48;4.55;;;17.10;84.70;;;;;;4975661;28;20030;-79
2022/10/22 08:22:17;;;;;;;18.00;4.53;;;17.10;84.80;;;;;;4979371;28;20031;-79
2022/10/22 08:24:42;;;;;;;23.73;5.30;;;17.20;84.80;;;;;;4980137;28;20082;-79
2022/10/22 08:27:08;;;;;;;23.75;4.88;;;17.30;84.60;;;;;;4972732;28;20126;-79
2022/10/22 08:29:34;;;;;;;21.95;4.47;;;17.30;84.50;;;;;;4966760;28;20062;-80
2022/10/22 08:32:01;;;;;;;18.50;4.03;;;17.30;84.50;;;;;;4978311;28;20081;-80
2022/10/22 08:34:28;;;;;;;18.25;4.07;;;17.30;84.40;;;;;;4972959;28;20070;-79
2022/10/22 08:36:54;;;;;;;22.38;4.15;;;17.30;84.50;;;;;;4974754;28;20038;-81
2022/10/22 08:39:19;;;;;;;17.17;4.57;;;17.30;84.40;;;;;;4994988;28;20086;-80
2022/10/22 08:42:05;;;;;;;11.68;3.97;;;17.30;84.50;;;;;;4970263;28;20677;-80
2022/10/22 08:44:38;;;;;;;15.95;4.00;;;17.40;84.40;;;;;;4971909;28;20041;-79
2022/10/22 08:47:10;;;;;;;18.50;3.55;;;17.50;84.30;;;;;;4974698;28;20459;-80
2022/10/22 08:49:39;;;;;;;12.27;4.00;;;17.60;84.00;;;;;;4969858;28;20926;-80
2022/10/22 08:52:07;;;;;;;17.90;4.18;;;17.60;83.90;;;;;;4972480;28;20077;-78
2022/10/22 08:54:46;;;;;;;20.20;5.20;;;17.70;83.80;;;;;;4973338;28;20148;-79
2022/10/22 08:57:46;;;;;;;18.17;4.55;;;17.80;83.70;;;;;;4973594;28;20473;-78
2022/10/22 09:00:41;;;;;;;12.88;3.42;;;17.90;83.60;;;;;;4931639;28;20043;-79
2022/10/22 09:03:22;;;;;;;15.68;3.42;;;18.10;83.40;;;;;;4974795;28;20041;-81
2022/10/22 09:05:53;;;;;;;16.85;3.40;;;18.10;83.00;;;;;;4948659;28;20018;-79
2022/10/22 09:08:19;;;;;;;19.02;3.67;;;18.20;82.70;;;;;;4967420;28;20053;-78
2022/10/22 09:10:57;;;;;;;12.88;4.38;;;18.20;82.60;;;;;;4972268;28;20042;-78
2022/10/22 09:13:23;;;;;;;13.90;3.35;;;18.10;82.60;;;;;;4968909;28;20039;-78
2022/10/22 09:15:54;;;;;;;14.10;2.90;;;18.00;82.30;;;;;;4976394;28;20034;-78
2022/10/22 09:18:42;;;;;;;16.25;3.53;;;18.00;82.70;;;;;;4971561;28;20207;-78
2022/10/22 09:21:32;;;;;;;11.60;3.38;;;18.00;83.00;;;;;;4949655;28;20030;-78
2022/10/22 09:24:01;;;;;;;13.10;3.55;;;18.00;83.10;;;;;;4958818;28;20077;-78
2022/10/22 09:26:27;;;;;;;14.05;3.67;;;18.00;82.90;;;;;;4962821;28;20114;-78
2022/10/22 09:28:53;;;;;;;14.75;3.70;;;18.10;82.80;;;;;;4955735;28;20232;-78
2022/10/22 09:31:18;;;;;;;14.07;4.05;;;18.20;82.70;;;;;;4960757;28;20505;-78
2022/10/22 09:33:47;;;;;;;17.30;3.78;;;18.30;82.80;;;;;;4947981;28;20091;-78
2022/10/22 09:36:20;;;;;;;18.92;4.07;;;18.40;82.40;;;;;;4976291;28;20038;-79
2022/10/22 09:38:49;;;;;;;9.60;3.63;;;18.50;82.20;;;;;;4974765;28;20043;-77
2022/10/22 09:41:16;;;;;;;20.70;4.53;;;18.60;81.40;;;;;;4972747;28;20057;-78
2022/10/22 09:43:42;;;;;;;16.85;4.45;;;18.70;81.70;;;;;;4975226;28;20027;-78
2022/10/22 09:46:16;;;;;;;16.42;4.47;;;18.70;81.50;;;;;;4952941;28;20026;-78
2022/10/22 09:48:57;;;;;;;11.27;4.63;;;18.70;81.40;;;;;;4974877;28;20034;-78
2022/10/22 09:51:34;;;;;;;17.92;6.38;;;18.80;81.30;;;;;;4970868;28;20061;-78
2022/10/22 09:54:11;;;;;;;12.27;5.50;;;18.80;81.20;;;;;;4962797;28;20158;-78
2022/10/22 09:56:41;;;;;;;11.10;4.93;;;18.80;80.90;;;;;;4957194;28;20704;-79
2022/10/22 09:59:16;;;;;;;11.18;4.50;;;19.00;80.80;;;;;;4954375;28;20030;-81
2022/10/22 10:01:43;;;;;;;20.60;5.95;;;19.00;80.80;;;;;;4968102;28;20042;-80
2022/10/22 10:04:14;;;;;;;14.07;4.15;;;19.00;80.60;;;;;;4959932;28;20038;-82
2022/10/22 10:06:42;;;;;;;13.23;4.47;;;19.10;80.60;;;;;;4947194;28;20046;-80
2022/10/22 10:09:17;;;;;;;11.43;3.92;;;19.20;80.60;;;;;;4973998;28;20504;-80
2022/10/22 10:12:01;;;;;;;11.70;3.30;;;19.30;80.20;;;;;;4969381;28;20170;-81
2022/10/22 10:14:45;;;;;;;14.85;3.83;;;19.30;79.80;;;;;;4968635;28;20031;-78
2022/10/22 10:17:44;;;;;;;13.13;3.53;;;19.40;78.80;;;;;;4952528;28;20031;-81
2022/10/22 10:20:18;;;;;;;14.63;3.88;;;19.30;79.20;;;;;;4973532;28;20039;-81
2022/10/22 10:23:16;;;;;;;10.45;2.83;;;19.40;79.50;;;;;;4964498;28;20035;-80
2022/10/22 10:25:57;;;;;;;9.77;2.53;;;19.50;79.10;;;;;;4970121;28;20129;-80
2022/10/22 10:28:25;;;;;;;9.52;2.40;;;19.60;79.00;;;;;;4957788;28;20872;-84
2022/10/22 10:31:19;;;;;;;11.00;1.95;;;19.60;78.90;;;;;;4940653;28;20453;-84
2022/10/22 10:34:12;;;;;;;9.57;1.73;;;19.60;78.50;;;;;;4968549;28;20038;-85
2022/10/22 10:37:10;;;;;;;10.68;2.05;;;19.60;78.50;;;;;;4973962;28;20030;-87
2022/10/22 10:40:14;;;;;;;9.75;2.45;;;19.60;78.60;;;;;;4967899;28;20035;-81
2022/10/22 10:42:50;;;;;;;9.93;1.80;;;19.70;78.30;;;;;;4930062;29;20119;-77
2022/10/22 10:45:19;;;;;;;11.02;2.10;;;19.70;78.60;;;;;;4956601;28;20027;-86
2022/10/22 10:48:07;;;;;;;12.60;2.33;;;19.70;78.50;;;;;;4964647;28;20109;-84
2022/10/22 10:50:55;;;;;;;12.60;2.70;;;19.70;78.40;;;;;;4976389;28;20030;-83
2022/10/22 10:53:26;;;;;;;8.55;1.60;;;19.70;78.40;;;;;;4973926;28;20037;-79
2022/10/22 10:56:10;;;;;;;11.00;2.10;;;19.70;78.40;;;;;;4966016;28;20027;-81
2022/10/22 10:58:49;;;;;;;8.73;2.40;;;19.80;78.10;;;;;;4976845;28;20038;-79
2022/10/22 11:01:50;;;;;;;7.95;1.50;;;19.80;77.90;;;;;;4974866;28;20043;-79
2022/10/22 11:04:43;;;;;;;13.90;1.80;;;19.70;78.40;;;;;;4973111;28;20042;-80
2022/10/22 11:07:16;;;;;;;10.85;1.52;;;19.80;78.70;;;;;;4975850;28;20176;-81
2022/10/22 11:09:58;;;;;;;9.00;1.77;;;19.80;78.20;;;;;;4962023;28;20035;-81
2022/10/22 11:12:29;;;;;;;7.80;1.67;;;19.90;78.00;;;;;;4976745;28;20046;-82
2022/10/22 11:15:05;;;;;;;9.77;1.52;;;20.00;77.70;;;;;;4963571;28;20102;-83
2022/10/22 11:17:37;;;;;;;7.35;1.58;;;20.00;77.20;;;;;;4966081;28;20027;-80
2022/10/22 11:20:29;;;;;;;11.20;2.08;;;20.00;76.80;;;;;;4975974;28;20516;-82
2022/10/22 11:23:03;;;;;;;6.65;1.17;;;20.00;76.60;;;;;;4976132;28;20050;-81
2022/10/22 11:25:43;;;;;;;10.65;2.10;;;20.10;75.80;;;;;;4972494;28;20026;-81
2022/10/22 11:28:23;;;;;;;;;;;20.10;75.30;;;;;;4974549;28;20400;-83
2022/10/22 11:30:55;;;;;;;6.38;1.35;;;20.30;76.00;;;;;;4986020;28;20016;-84
2022/10/22 11:33:25;;;;;;;8.85;1.60;;;20.30;76.20;;;;;;4966403;28;20035;-84
2022/10/22 11:35:52;;;;;;;9.23;1.50;;;20.30;75.70;;;;;;4968858;28;20031;-84
2022/10/22 11:38:22;;;;;;;6.90;1.73;;;20.60;75.90;;;;;;4938107;28;20101;-84
2022/10/22 11:40:58;;;;;;;4.82;1.10;;;20.70;74.70;;;;;;4986198;28;20061;-84
2022/10/22 11:43:57;;;;;;;7.95;1.30;;;20.80;74.70;;;;;;4966189;28;20106;-85
2022/10/22 11:46:23;;;;;;;6.55;1.27;;;20.90;74.50;;;;;;4965567;28;20042;-93
2022/10/22 11:49:04;;;;;;;9.45;1.67;;;21.00;74.20;;;;;;4987301;28;20034;-87
2022/10/22 11:51:38;;;;;;;7.93;1.17;;;21.10;73.40;;;;;;4969263;28;20038;-85
2022/10/22 11:54:32;;;;;;;5.03;0.90;;;21.00;72.80;;;;;;4968005;28;20027;-86
2022/10/22 11:57:18;;;;;;;8.02;2.17;;;21.00;72.50;;;;;;4972630;28;20035;-84
2022/10/22 11:59:58;;;;;;;5.47;1.17;;;21.10;72.20;;;;;;4967249;28;20030;-84
2022/10/22 12:02:30;;;;;;;5.28;1.27;;;21.10;71.70;;;;;;4969088;28;20035;-82
2022/10/22 12:05:16;;;;;;;9.32;1.05;;;21.10;71.80;;;;;;4967190;28;20022;-84
2022/10/22 12:08:08;;;;;;;8.20;1.20;;;21.00;70.80;;;;;;4974947;28;20027;-84
2022/10/22 12:10:48;;;;;;;6.63;1.13;;;20.80;71.40;;;;;;4968084;28;20037;-85
2022/10/22 12:13:20;;;;;;;;;;;20.80;72.10;;;;;;4970457;28;20118;-83
2022/10/22 12:15:48;;;;;;;4.57;0.90;;;20.80;72.00;;;;;;4968534;28;19906;-84
2022/10/22 12:18:15;;;;;;;7.30;1.38;;;20.80;71.30;;;;;;4965629;28;20554;-84
2022/10/22 12:20:40;;;;;;;4.32;1.15;;;20.80;71.30;;;;;;4969882;28;20484;-84
2022/10/22 12:23:10;;;;;;;8.95;1.20;;;20.80;70.20;;;;;;4968664;28;20048;-84
2022/10/22 12:25:36;;;;;;;4.65;0.90;;;20.90;70.80;;;;;;4967038;28;20023;-84
2022/10/22 12:28:03;;;;;;;13.57;1.42;;;20.90;71.10;;;;;;4972702;28;20031;-85
2022/10/22 12:30:33;;;;;;;6.65;1.00;;;20.90;70.70;;;;;;4973074;28;20102;-84
2022/10/22 12:33:01;;;;;;;7.63;1.20;;;21.00;71.20;;;;;;4971931;28;20022;-84
2022/10/22 12:35:46;;;;;;;4.43;1.30;;;21.00;70.90;;;;;;4973945;28;20034;-84
2022/10/22 12:38:19;;;;;;;4.65;1.40;;;20.80;70.60;;;;;;4972998;28;20027;-83
2022/10/22 12:40:45;;;;;;;4.70;1.13;;;20.90;70.40;;;;;;4973511;28;20505;-84
2022/10/22 12:43:15;;;;;;;10.05;1.33;;;20.90;70.70;;;;;;4970706;28;20026;-85
2022/10/22 12:45:47;;;;;;;5.05;1.30;;;20.90;70.30;;;;;;4974598;28;20034;-83
2022/10/22 12:48:32;;;;;;;4.68;1.00;;;21.00;70.70;;;;;;4972789;28;20031;-84
2022/10/22 12:51:00;;;;;;;4.25;0.88;;;21.00;70.40;;;;;;4974658;28;20022;-85
2022/10/22 12:53:33;;;;;;;10.10;1.30;;;21.10;70.70;;;;;;4974802;28;20038;-83
2022/10/22 12:56:02;;;;;;;4.30;1.33;;;21.10;70.20;;;;;;4977273;28;20030;-84
2022/10/22 12:58:37;;;;;;;5.90;1.00;;;21.10;70.90;;;;;;4973070;28;20030;-84
2022/10/22 13:01:03;;;;;;;4.88;1.88;;;21.20;70.70;;;;;;4988762;28;20114;-84
2022/10/22 13:03:38;;;;;;;7.35;1.30;;;21.20;70.80;;;;;;4969657;28;20031;-83
2022/10/22 13:06:23;;;;;;;4.13;1.25;;;21.20;70.70;;;;;;4977023;28;20019;-84
2022/10/22 13:09:05;;;;;;;4.32;1.10;;;21.20;69.90;;;;;;4972822;28;20011;-83
2022/10/22 13:11:36;;;;;;;6.97;1.15;;;21.20;70.10;;;;;;4972546;28;20106;-83
2022/10/22 13:14:21;;;;;;;4.47;0.80;;;21.20;69.90;;;;;;4972825;28;20023;-84
2022/10/22 13:17:11;;;;;;;3.60;1.23;;;21.10;69.80;;;;;;4954600;28;20026;-84
2022/10/22 13:19:40;;;;;;;5.35;1.10;;;21.10;69.50;;;;;;4969235;28;20027;-84
2022/10/22 13:22:29;;;;;;;7.95;0.90;;;21.20;69.80;;;;;;4970004;28;20094;-84
2022/10/22 13:24:58;;;;;;;5.03;1.10;;;21.20;69.20;;;;;;4957737;29;20028;-85
2022/10/22 13:27:27;;;;;;;5.47;1.15;;;21.20;69.90;;;;;;4963540;28;20086;-85
2022/10/22 13:29:55;;;;;;;6.82;1.20;;;21.30;69.50;;;;;;4972099;28;20086;-86
2022/10/22 13:32:32;;;;;;;3.35;0.95;;;21.30;68.90;;;;;;4973925;28;20055;-85
2022/10/22 13:35:02;;;;;;;5.15;0.93;;;21.30;68.80;;;;;;4971842;28;20062;-84
2022/10/22 13:37:30;;;;;;;;;;;21.40;69.00;;;;;;4973153;28;20034;-84
2022/10/22 13:39:55;;;;;;;5.63;1.17;;;21.40;69.10;;;;;;4974801;28;19914;-84
2022/10/22 13:42:21;;;;;;;5.47;1.10;;;21.50;68.40;;;;;;4971142;28;20042;-84
2022/10/22 13:44:47;;;;;;;5.50;1.25;;;21.50;68.80;;;;;;4968941;28;20038;-85
2022/10/22 13:47:31;;;;;;;5.45;1.45;;;21.40;67.20;;;;;;4970648;28;20166;-84
2022/10/22 13:50:17;;;;;;;3.33;0.90;;;21.40;68.00;;;;;;4966403;28;20035;-83
2022/10/22 13:53:06;;;;;;;5.13;1.15;;;21.40;68.20;;;;;;4967182;28;20066;-83
2022/10/22 13:55:32;;;;;;;3.58;1.02;;;21.30;67.90;;;;;;4974583;28;20037;-83
2022/10/22 13:58:14;;;;;;;4.57;1.42;;;21.30;67.60;;;;;;4978354;28;20082;-85
2022/10/22 14:00:42;;;;;;;5.40;0.93;;;21.30;67.50;;;;;;4962411;28;20042;-83
2022/10/22 14:03:14;;;;;;;6.85;0.93;;;21.20;68.00;;;;;;4969536;28;20029;-84
2022/10/22 14:05:40;;;;;;;5.00;1.73;;;21.30;67.60;;;;;;4981879;28;20038;-83
2022/10/22 14:08:13;;;;;;;5.68;1.08;;;21.30;68.10;;;;;;4976111;28;20027;-83
2022/10/22 14:10:39;;;;;;;3.78;1.00;;;21.30;68.20;;;;;;4974333;28;20030;-83
2022/10/22 14:13:06;;;;;;;3.60;1.15;;;21.30;68.20;;;;;;4974131;28;20023;-83
2022/10/22 14:15:33;;;;;;;6.90;1.00;;;21.20;68.30;;;;;;4969268;28;20048;-83
2022/10/22 14:17:59;;;;;;;7.63;1.40;;;21.30;68.50;;;;;;4972887;28;20049;-85
2022/10/22 14:20:30;;;;;;;7.20;0.93;;;21.30;68.20;;;;;;4967907;28;20456;-82
2022/10/22 14:22:59;;;;;;;6.93;1.25;;;21.30;68.20;;;;;;4973341;28;20031;-83
2022/10/22 14:25:25;;;;;;;6.25;0.77;;;21.30;67.70;;;;;;4962297;28;20054;-83
2022/10/22 14:27:51;;;;;;;5.18;0.90;;;21.30;68.00;;;;;;4974942;28;20054;-82
2022/10/22 14:30:20;;;;;;;6.03;1.20;;;21.30;68.50;;;;;;4974269;28;20031;-83
2022/10/22 14:32:47;;;;;;;4.82;1.48;;;21.30;68.80;;;;;;4975496;28;20043;-84
2022/10/22 14:35:15;;;;;;;4.07;1.15;;;21.20;68.30;;;;;;4971634;28;20476;-84
2022/10/22 14:37:41;;;;;;;5.13;1.08;;;21.20;68.80;;;;;;4973114;28;20042;-84
2022/10/22 14:40:11;;;;;;;6.10;1.55;;;21.20;68.70;;;;;;4972498;28;20066;-83
2022/10/22 14:42:40;;;;;;;8.32;1.52;;;21.20;68.60;;;;;;4974501;28;20103;-84
2022/10/22 14:45:20;;;;;;;8.10;0.98;;;21.20;68.90;;;;;;4976014;28;20038;-84
2022/10/22 14:47:46;;;;;;;2.53;0.80;;;21.20;68.60;;;;;;4973835;28;20027;-84
2022/10/22 14:50:13;;;;;;;5.00;1.38;;;21.20;68.90;;;;;;4970900;28;20043;-84
2022/10/22 14:52:39;;;;;;;7.32;1.70;;;21.20;68.30;;;;;;4966786;28;20155;-83
2022/10/22 14:55:06;;;;;;;6.60;2.10;;;21.10;68.20;;;;;;4972098;28;20073;-84
2022/10/22 14:57:31;;;;;;;9.05;2.28;;;21.10;68.50;;;;;;4968297;28;20033;-83
2022/10/22 14:59:57;;;;;;;9.55;2.50;;;21.00;68.20;;;;;;4976988;28;20039;-83
2022/10/22 15:02:22;;;;;;;10.13;2.50;;;21.00;68.60;;;;;;4976176;28;20031;-83
2022/10/22 15:04:48;;;;;;;7.38;2.38;;;21.00;69.00;;;;;;4974415;28;20056;-83
2022/10/22 15:07:15;;;;;;;6.00;1.95;;;21.00;68.20;;;;;;4961445;28;20031;-84
2022/10/22 15:09:41;;;;;;;5.80;1.52;;;21.00;69.00;;;;;;4944385;28;20043;-83
2022/10/22 15:12:06;;;;;;;4.88;1.70;;;20.90;68.80;;;;;;4968031;28;20027;-83
2022/10/22 15:14:32;;;;;;;3.25;1.42;;;21.00;69.00;;;;;;4976075;28;20023;-81
2022/10/22 15:16:58;;;;;;;4.15;1.48;;;20.90;68.40;;;;;;4970740;28;20504;-84
2022/10/22 15:19:25;;;;;;;9.20;1.92;;;20.90;68.40;;;;;;4972677;28;20085;-85
2022/10/22 15:21:50;;;;;;;4.20;1.60;;;20.80;68.50;;;;;;4976698;28;20019;-84
2022/10/22 15:24:16;;;;;;;6.57;2.10;;;20.80;68.80;;;;;;4976437;28;20030;-85
2022/10/22 15:26:42;;;;;;;7.40;2.05;;;20.80;68.80;;;;;;4974570;28;20066;-84
2022/10/22 15:29:08;;;;;;;7.57;1.77;;;20.80;68.70;;;;;;4988762;28;20122;-83
2022/10/22 15:31:48;;;;;;;6.32;1.67;;;20.80;68.80;;;;;;4970006;28;20122;-83
2022/10/22 15:34:17;;;;;;;;;;;20.70;69.00;;;;;;4967698;28;20490;-82
2022/10/22 15:36:43;;;;;;;3.60;1.52;;;20.70;69.40;;;;;;4975851;28;19977;-81
2022/10/22 15:39:09;;;;;;;4.10;1.30;;;20.70;69.70;;;;;;4973776;28;20509;-82
2022/10/22 15:41:36;;;;;;;5.15;1.55;;;20.80;69.80;;;;;;4974697;28;20050;-85
2022/10/22 15:44:05;;;;;;;4.70;1.73;;;20.70;69.90;;;;;;4973757;28;20751;-81
2022/10/22 15:46:32;;;;;;;5.85;1.48;;;20.70;69.80;;;;;;4952046;28;20027;-83
2022/10/22 15:48:58;;;;;;;4.82;1.75;;;20.60;70.00;;;;;;4965765;28;20508;-84
2022/10/22 15:51:24;;;;;;;6.28;1.80;;;20.60;70.00;;;;;;4967757;28;20026;-87
2022/10/22 15:53:51;;;;;;;6.00;1.83;;;20.50;70.10;;;;;;4964868;28;20548;-81
2022/10/22 15:56:17;;;;;;;5.75;1.65;;;20.50;70.50;;;;;;4968182;28;20050;-82
2022/10/22 15:58:43;;;;;;;6.00;1.90;;;20.60;70.30;;;;;;4966794;28;20762;-82
2022/10/22 16:01:11;;;;;;;8.23;2.10;;;20.50;70.20;;;;;;4988079;28;20057;-88
2022/10/22 16:03:37;;;;;;;6.90;2.13;;;20.50;70.20;;;;;;4963622;28;20026;-84
2022/10/22 16:06:05;;;;;;;9.52;2.40;;;20.50;70.20;;;;;;4974305;28;20110;-87
2022/10/22 16:08:31;;;;;;;5.68;2.33;;;20.40;70.30;;;;;;4967046;28;20058;-87
2022/10/22 16:10:57;;;;;;;7.13;1.98;;;20.40;70.50;;;;;;4957891;28;20034;-81
2022/10/22 16:13:23;;;;;;;6.00;1.75;;;20.40;70.50;;;;;;4941934;28;20069;-83
2022/10/22 16:15:50;;;;;;;6.88;2.05;;;20.40;70.70;;;;;;4964968;28;20039;-82
2022/10/22 16:18:16;;;;;;;6.32;2.15;;;20.40;70.80;;;;;;4979576;28;20047;-84
2022/10/22 16:20:42;;;;;;;4.57;1.92;;;20.30;71.00;;;;;;4965542;28;20528;-83
2022/10/22 16:23:08;;;;;;;7.53;1.73;;;20.30;71.00;;;;;;4967727;28;20126;-85
2022/10/22 16:25:40;;;;;;;5.70;1.70;;;20.30;71.20;;;;;;4970061;28;20592;-85
2022/10/22 16:28:07;;;;;;;3.53;1.65;;;20.30;71.20;;;;;;4967053;28;20038;-82
2022/10/22 16:30:34;;;;;;;4.60;1.55;;;20.30;71.00;;;;;;4971491;28;20073;-85
2022/10/22 16:33:00;;;;;;;4.57;1.45;;;20.20;71.60;;;;;;4967411;28;20038;-85
2022/10/22 16:35:27;;;;;;;7.40;2.15;;;20.20;71.70;;;;;;4979214;28;20046;-82
2022/10/22 16:37:52;;;;;;;5.65;1.85;;;20.20;71.90;;;;;;4972031;28;20184;-82
2022/10/22 16:40:18;;;;;;;7.85;1.75;;;20.20;71.70;;;;;;4970258;28;20589;-84
2022/10/22 16:42:44;;;;;;;5.55;1.73;;;20.20;71.90;;;;;;4959625;28;20080;-81
2022/10/22 16:45:10;;;;;;;7.45;1.98;;;20.10;72.00;;;;;;4974245;28;20027;-79
2022/10/22 16:47:36;;;;;;;9.25;2.08;;;20.00;71.80;;;;;;4975332;28;20051;-83
2022/10/22 16:50:02;;;;;;;5.43;1.88;;;20.00;72.10;;;;;;4976194;28;20023;-85
2022/10/22 16:52:28;;;;;;;4.90;1.90;;;19.80;72.10;;;;;;4969731;28;20579;-83
2022/10/22 16:54:53;;;;;;;5.53;2.28;;;19.80;72.40;;;;;;4971312;28;20042;-83
2022/10/22 16:57:19;;;;;;;4.65;1.80;;;19.80;72.60;;;;;;4981095;28;20023;-84
2022/10/22 16:59:47;;;;;;;8.13;2.50;;;19.80;72.90;;;;;;4986750;28;20042;-85
2022/10/22 17:02:39;;;;;;;7.32;2.83;;;19.70;72.90;;;;;;4982154;28;20058;-81
2022/10/22 17:05:05;;;;;;;7.40;2.40;;;19.70;73.10;;;;;;4970460;28;20035;-82
2022/10/22 17:07:31;;;;;;;11.10;3.25;;;19.60;73.20;;;;;;4977913;28;20027;-83
2022/10/22 17:09:56;;;;;;;6.47;3.00;;;19.70;73.20;;;;;;4970496;28;20042;-80
2022/10/22 17:12:25;;;;;;;10.27;2.95;;;19.80;73.20;;;;;;4991433;28;20042;-82
2022/10/22 17:14:51;;;;;;;5.25;2.35;;;19.70;73.20;;;;;;4939651;28;20065;-84
2022/10/22 17:17:16;;;;;;;7.28;2.72;;;19.80;73.10;;;;;;4956023;28;20114;-80
2022/10/22 17:19:42;;;;;;;6.10;2.85;;;19.70;73.00;;;;;;4977533;28;20038;-82
2022/10/22 17:22:08;;;;;;;7.05;2.78;;;19.70;73.20;;;;;;4970978;28;20022;-79
2022/10/22 17:24:34;;;;;;;7.32;2.75;;;19.70;73.20;;;;;;4953653;28;20039;-79
2022/10/22 17:27:00;;;;;;;7.82;3.47;;;19.60;73.30;;;;;;4965855;28;20019;-79
2022/10/22 17:29:25;;;;;;;6.97;1.75;;;19.60;73.40;;;;;;4970332;28;20460;-78